Terminal Aerodrome Forecast
Issued by NWS Shreveport, LA

Home | Current Version | Previous Version | Text Only | Print | Product List | Glossary On
Versions: 1 2 3 4 5 6 7 8 9 10 11 12 13 14 15 16 17
000
FTUS44 KSHV 231145
TAFTXK
TAF
KTXK 231145Z 2312/2412 09003KT P6SM BKN080 OVC100
     FM231300 10005KT P6SM SCT020 OVC090
      TEMPO 2314/2318 BKN020
     FM231800 14007KT P6SM VCSH BKN035 OVC250
     FM232100 14010KT P6SM VCTS BKN040CB OVC100
     FM240000 15006KT 5SM -SHRA VCTS OVC030CB=

USA.gov is the U.S. government's official web portal to all federal, state and local government web resources and services.